createdAt,value
2019-03-24T00:01:47.323Z,49.19
2019-03-24T00:04:19.841Z,49.27
2019-03-24T00:06:52.264Z,49.33
2019-03-24T00:09:24.697Z,49.33
2019-03-24T00:11:57.595Z,49.41
2019-03-24T00:14:30.239Z,49.44
2019-03-24T00:17:02.778Z,49.57
2019-03-24T00:19:35.324Z,49.61
2019-03-24T00:22:08.492Z,49.66
2019-03-24T00:24:41.464Z,49.65
2019-03-24T00:27:14.421Z,49.64
2019-03-24T00:29:47.209Z,49.66
2019-03-24T00:32:20.031Z,49.71
2019-03-24T00:34:52.646Z,49.81
2019-03-24T00:37:25.160Z,49.83
2019-03-24T00:39:57.694Z,49.97
2019-03-24T00:42:30.913Z,50.05
2019-03-24T00:45:03.559Z,50.10
2019-03-24T00:47:36.473Z,50.16
2019-03-24T00:50:09.440Z,50.23
2019-03-24T00:52:42.230Z,50.33
2019-03-24T00:55:14.805Z,50.35
2019-03-24T00:57:47.253Z,50.41
2019-03-24T01:00:25.040Z,50.51
2019-03-24T01:02:57.773Z,50.56
2019-03-24T01:05:30.235Z,50.66
2019-03-24T01:08:02.857Z,50.64
2019-03-24T01:10:35.229Z,50.79
2019-03-24T01:13:07.643Z,50.88
2019-03-24T01:15:47.646Z,50.89
2019-03-24T01:18:15.060Z,50.90
2019-03-24T01:20:47.605Z,50.98
2019-03-24T01:23:20.575Z,50.98
2019-03-24T01:25:52.982Z,50.99
2019-03-24T01:28:25.488Z,51.00
2019-03-24T01:30:58.137Z,51.03
2019-03-24T01:33:30.742Z,50.98
2019-03-24T01:36:03.494Z,51.05
2019-03-24T01:38:36.105Z,51.07
2019-03-24T01:41:08.561Z,51.11
2019-03-24T01:43:40.983Z,51.14
2019-03-24T01:46:13.573Z,51.17
2019-03-24T01:48:45.990Z,51.20
2019-03-24T01:51:18.557Z,51.17
2019-03-24T01:53:50.989Z,51.21
2019-03-24T01:56:23.518Z,51.29
2019-03-24T01:58:55.977Z,51.37
2019-03-24T02:01:28.481Z,51.39
2019-03-24T02:04:02.602Z,51.43
2019-03-24T02:06:35.106Z,51.45
2019-03-24T02:09:09.928Z,51.57
2019-03-24T02:11:42.432Z,51.58
2019-03-24T02:14:15.440Z,51.65
2019-03-24T02:16:47.878Z,51.74
2019-03-24T02:19:22.910Z,51.86
2019-03-24T02:21:55.366Z,51.88
2019-03-24T02:24:27.764Z,52.01
2019-03-24T02:27:00.185Z,52.01
2019-03-24T02:29:32.819Z,52.05
2019-03-24T02:32:05.674Z,52.08
2019-03-24T02:34:38.202Z,52.10
2019-03-24T02:37:10.743Z,52.10
2019-03-24T02:39:43.164Z,52.17
2019-03-24T02:42:15.621Z,52.15
2019-03-24T02:44:48.318Z,52.19
2019-03-24T02:47:20.722Z,52.24
2019-03-24T02:49:53.383Z,52.22
2019-03-24T02:52:25.780Z,52.30
2019-03-24T02:54:58.157Z,52.36
2019-03-24T02:57:30.926Z,52.39
2019-03-24T03:00:03.425Z,52.46
2019-03-24T03:02:35.928Z,52.48
2019-03-24T03:05:10.161Z,52.50
2019-03-24T03:07:42.522Z,52.54
2019-03-24T03:10:16.637Z,52.56
2019-03-24T03:12:49.162Z,52.63
2019-03-24T03:15:21.611Z,52.70
2019-03-24T03:17:54.043Z,52.79
2019-03-24T03:20:27.034Z,52.87
2019-03-24T03:22:59.861Z,52.92
2019-03-24T03:25:32.268Z,52.93
2019-03-24T03:28:04.914Z,52.99
2019-03-24T03:30:37.428Z,53.02
2019-03-24T03:33:10.135Z,53.00
2019-03-24T03:35:42.606Z,53.00
2019-03-24T03:38:15.047Z,53.01
2019-03-24T03:40:47.479Z,52.96
2019-03-24T03:43:20.376Z,52.99
2019-03-24T03:45:52.830Z,53.01
2019-03-24T03:48:25.289Z,53.02
2019-03-24T03:50:57.700Z,52.97
2019-03-24T03:53:30.389Z,52.88
2019-03-24T03:56:02.883Z,52.87
2019-03-24T03:58:35.770Z,52.82
2019-03-24T04:01:08.293Z,52.84
2019-03-24T04:03:40.802Z,52.88
2019-03-24T04:06:13.256Z,52.93
2019-03-24T04:08:45.669Z,52.94
2019-03-24T04:11:18.295Z,52.95
2019-03-24T04:13:51.152Z,53.08
2019-03-24T04:16:23.825Z,53.21
2019-03-24T04:18:56.236Z,53.27
2019-03-24T04:21:28.644Z,53.30
2019-03-24T04:24:01.062Z,53.38
2019-03-24T04:26:33.531Z,53.38
2019-03-24T04:29:06.339Z,53.42
2019-03-24T04:31:38.764Z,53.44
2019-03-24T04:34:11.189Z,53.46
2019-03-24T04:36:43.680Z,53.47
2019-03-24T04:39:16.186Z,53.51
2019-03-24T04:41:48.628Z,53.51
2019-03-24T04:44:21.456Z,53.47
2019-03-24T04:46:53.967Z,53.55
2019-03-24T04:49:26.657Z,53.56
2019-03-24T04:51:59.062Z,53.60
2019-03-24T04:54:31.518Z,53.57
2019-03-24T04:57:03.943Z,53.53
2019-03-24T04:59:36.565Z,53.56
2019-03-24T05:02:08.986Z,53.62
2019-03-24T05:04:41.389Z,53.68
2019-03-24T05:07:13.787Z,53.75
2019-03-24T05:09:46.557Z,53.75
2019-03-24T05:12:18.978Z,53.78
2019-03-24T05:14:51.842Z,53.78
2019-03-24T05:17:27.244Z,53.79
2019-03-24T05:19:58.393Z,53.79
2019-03-24T05:22:30.976Z,53.81
2019-03-24T05:25:03.469Z,53.84
2019-03-24T05:27:35.933Z,53.89
2019-03-24T05:30:08.758Z,53.91
2019-03-24T05:32:41.305Z,53.94
2019-03-24T05:35:14.099Z,54.00
2019-03-24T05:37:46.581Z,54.01
2019-03-24T05:40:19.050Z,54.03
2019-03-24T05:42:51.815Z,54.08
2019-03-24T05:45:24.432Z,54.12
2019-03-24T05:47:56.984Z,54.14
2019-03-24T05:50:29.434Z,54.16
2019-03-24T05:53:02.007Z,54.17
2019-03-24T05:55:34.425Z,54.18
2019-03-24T05:58:06.893Z,54.23
2019-03-24T06:00:39.314Z,54.21
2019-03-24T06:03:11.947Z,54.24
2019-03-24T06:05:44.350Z,54.25
2019-03-24T06:08:16.781Z,54.25
2019-03-24T06:10:49.197Z,54.26
2019-03-24T06:13:21.604Z,54.33
2019-03-24T06:15:53.996Z,54.37
2019-03-24T06:18:26.677Z,54.43
2019-03-24T06:20:59.113Z,54.50
2019-03-24T06:23:31.535Z,54.58
2019-03-24T06:26:03.982Z,54.67
2019-03-24T06:28:36.380Z,54.75
2019-03-24T06:31:08.844Z,54.78
2019-03-24T06:33:41.375Z,54.79
2019-03-24T06:36:13.944Z,54.73
2019-03-24T06:38:46.428Z,54.69
2019-03-24T06:41:18.887Z,54.64
2019-03-24T06:43:51.646Z,54.67
2019-03-24T06:46:24.262Z,54.68
2019-03-24T06:48:56.796Z,54.72
2019-03-24T06:51:29.286Z,54.78
2019-03-24T06:54:01.862Z,54.88
2019-03-24T06:56:34.675Z,54.90
2019-03-24T06:59:07.159Z,54.94
2019-03-24T07:01:39.675Z,54.90
2019-03-24T07:04:12.163Z,54.87
2019-03-24T07:06:44.654Z,54.80
2019-03-24T07:09:17.199Z,54.79
2019-03-24T07:11:49.764Z,54.76
2019-03-24T07:14:22.299Z,54.76
2019-03-24T07:16:54.764Z,54.83
2019-03-24T07:19:27.226Z,54.89
2019-03-24T07:21:59.652Z,55.04
2019-03-24T07:24:32.425Z,55.11
2019-03-24T07:27:05.048Z,55.24
2019-03-24T07:29:37.449Z,55.33
2019-03-24T07:32:10.044Z,55.43
2019-03-24T07:34:42.609Z,55.60
2019-03-24T07:37:15.188Z,55.72
2019-03-24T07:39:47.662Z,55.76
2019-03-24T07:42:20.233Z,55.89
2019-03-24T07:44:52.803Z,55.95
2019-03-24T07:47:25.273Z,56.03
2019-03-24T07:49:57.746Z,56.08
2019-03-24T07:52:30.286Z,56.12
2019-03-24T07:55:02.730Z,56.10
2019-03-24T07:57:35.652Z,56.09
2019-03-24T08:00:09.821Z,56.13
2019-03-24T08:02:51.557Z,56.09
2019-03-24T08:05:24.146Z,56.09
2019-03-24T08:07:56.686Z,56.06
2019-03-24T08:10:29.276Z,56.04
2019-03-24T08:13:01.887Z,56.02
2019-03-24T08:15:34.299Z,55.96
2019-03-24T08:18:06.856Z,55.95
2019-03-24T08:20:39.303Z,55.88
2019-03-24T08:23:11.897Z,55.89
2019-03-24T08:25:44.384Z,55.89
2019-03-24T08:28:17.052Z,55.86
2019-03-24T08:30:49.796Z,55.79
2019-03-24T08:33:22.351Z,55.77
2019-03-24T08:35:55.153Z,55.74
2019-03-24T08:38:27.626Z,55.69
2019-03-24T08:41:00.091Z,55.65
2019-03-24T08:43:32.707Z,55.61
2019-03-24T08:46:05.299Z,55.57
2019-03-24T08:48:41.198Z,55.57
2019-03-24T08:51:12.284Z,55.56
2019-03-24T08:53:44.779Z,55.46
2019-03-24T08:56:17.285Z,55.38
2019-03-24T08:58:49.876Z,55.28
2019-03-24T09:01:22.385Z,55.16
2019-03-24T09:03:54.842Z,55.04
2019-03-24T09:06:27.315Z,54.96
2019-03-24T09:09:00.048Z,54.89
2019-03-24T09:11:32.537Z,54.81
2019-03-24T09:14:05.058Z,54.78
2019-03-24T09:16:37.681Z,54.73
2019-03-24T09:19:10.182Z,54.67
2019-03-24T09:21:43.786Z,54.52
2019-03-24T09:24:16.325Z,54.45
2019-03-24T09:26:48.907Z,54.42
2019-03-24T09:29:21.447Z,54.34
2019-03-24T09:31:54.139Z,54.30
2019-03-24T09:34:26.656Z,54.21
2019-03-24T09:36:59.604Z,54.15
2019-03-24T09:39:32.188Z,53.95
2019-03-24T09:42:04.726Z,53.86
2019-03-24T09:44:37.405Z,53.79
2019-03-24T09:47:10.296Z,53.67
2019-03-24T09:49:42.738Z,53.63
2019-03-24T09:52:15.318Z,53.66
2019-03-24T09:54:48.244Z,53.61
2019-03-24T09:57:20.942Z,53.53
2019-03-24T09:59:53.437Z,53.40
2019-03-24T10:02:26.091Z,53.28
2019-03-24T10:04:58.879Z,53.29
2019-03-24T10:07:31.473Z,53.23
2019-03-24T10:10:04.088Z,53.17
2019-03-24T10:12:36.720Z,53.14
2019-03-24T10:15:09.509Z,53.11
2019-03-24T10:17:42.450Z,53.03
2019-03-24T10:20:15.365Z,52.91
2019-03-24T10:22:47.908Z,52.74
2019-03-24T10:25:20.923Z,52.67
2019-03-24T10:27:53.412Z,52.62
2019-03-24T10:30:26.080Z,52.49
2019-03-24T10:32:58.774Z,52.37
2019-03-24T10:35:31.261Z,52.24
2019-03-24T10:38:03.776Z,52.16
2019-03-24T10:40:36.499Z,52.08
2019-03-24T10:43:10.595Z,52.02
2019-03-24T10:45:43.196Z,51.96
2019-03-24T10:48:15.880Z,51.85
2019-03-24T10:50:48.508Z,51.82
2019-03-24T10:53:21.504Z,51.78
2019-03-24T10:55:54.490Z,51.65
2019-03-24T10:58:27.010Z,51.66
2019-03-24T11:00:59.842Z,51.60
2019-03-24T11:03:32.461Z,51.48
2019-03-24T11:06:04.920Z,51.35
2019-03-24T11:08:37.410Z,51.40
2019-03-24T11:11:09.815Z,51.21
2019-03-24T11:13:42.379Z,51.20
2019-03-24T11:16:14.943Z,51.18
2019-03-24T11:18:47.667Z,51.14
2019-03-24T11:21:20.634Z,51.08
2019-03-24T11:23:53.133Z,51.01
2019-03-24T11:26:25.576Z,50.83
2019-03-24T11:28:58.207Z,50.85
2019-03-24T11:31:30.702Z,50.81
2019-03-24T11:34:03.149Z,50.73
2019-03-24T11:36:35.802Z,50.60
2019-03-24T11:39:09.867Z,50.55
2019-03-24T11:41:42.857Z,50.48
2019-03-24T11:44:15.397Z,50.30
2019-03-24T11:46:48.048Z,50.19
2019-03-24T11:49:21.232Z,50.22
2019-03-24T11:51:54.019Z,50.20
2019-03-24T11:54:26.565Z,50.05
2019-03-24T11:56:59.015Z,49.99
2019-03-24T11:59:31.631Z,49.91
2019-03-24T12:02:04.822Z,49.83
2019-03-24T12:04:39.069Z,49.71
2019-03-24T12:07:11.766Z,49.65
2019-03-24T12:09:44.211Z,49.51
2019-03-24T12:12:16.794Z,49.47
2019-03-24T12:14:49.651Z,49.46
2019-03-24T12:17:22.315Z,49.39
2019-03-24T12:19:57.060Z,49.41
2019-03-24T12:22:29.261Z,49.31
2019-03-24T12:25:02.191Z,49.36
2019-03-24T12:27:34.826Z,49.36
2019-03-24T12:30:10.018Z,49.23
2019-03-24T12:32:42.613Z,49.31
2019-03-24T12:35:15.136Z,49.09
2019-03-24T12:37:48.117Z,49.12
2019-03-24T12:40:20.760Z,49.10
2019-03-24T12:42:53.305Z,49.00
2019-03-24T12:45:26.182Z,49.03
2019-03-24T12:47:58.742Z,48.97
2019-03-24T12:50:31.942Z,49.08
2019-03-24T12:53:04.806Z,48.85
2019-03-24T12:55:37.603Z,48.81
2019-03-24T12:58:10.270Z,48.74
2019-03-24T13:00:43.331Z,48.79
2019-03-24T13:03:16.198Z,48.72
2019-03-24T13:05:48.766Z,48.67
2019-03-24T13:08:21.505Z,48.59
2019-03-24T13:10:54.137Z,48.50
2019-03-24T13:13:26.749Z,48.43
2019-03-24T13:15:59.736Z,48.45
2019-03-24T13:18:32.263Z,48.42
2019-03-24T13:21:04.762Z,48.49
2019-03-24T13:23:37.651Z,48.44
2019-03-24T13:26:10.226Z,48.07
2019-03-24T13:28:42.874Z,48.03
2019-03-24T13:31:15.569Z,48.16
2019-03-24T13:33:48.368Z,48.16
2019-03-24T13:36:20.918Z,48.12
2019-03-24T13:38:53.727Z,47.81
2019-03-24T13:41:26.356Z,47.88
2019-03-24T13:43:58.975Z,47.79
2019-03-24T13:46:31.636Z,47.82
2019-03-24T13:49:04.181Z,47.64
2019-03-24T13:51:36.783Z,47.32
2019-03-24T13:54:09.594Z,47.25
2019-03-24T13:56:42.215Z,47.36
2019-03-24T13:59:14.854Z,47.51
2019-03-24T14:01:47.359Z,47.54
2019-03-24T14:04:19.853Z,47.47
2019-03-24T14:06:52.456Z,47.30
2019-03-24T14:09:25.825Z,47.29
2019-03-24T14:11:58.399Z,47.18
2019-03-24T14:14:31.056Z,47.01
2019-03-24T14:17:03.599Z,46.97
2019-03-24T14:19:36.104Z,46.92
2019-03-24T14:22:08.676Z,46.82
2019-03-24T14:24:41.259Z,46.71
2019-03-24T14:27:13.944Z,46.55
2019-03-24T14:29:46.536Z,46.58
2019-03-24T14:32:19.118Z,46.54
2019-03-24T14:34:51.584Z,46.40
2019-03-24T14:37:24.140Z,46.52
2019-03-24T14:39:56.611Z,46.49
2019-03-24T14:42:29.163Z,46.41
2019-03-24T14:45:01.901Z,46.43
2019-03-24T14:47:34.412Z,46.31
2019-03-24T14:50:07.280Z,46.13
2019-03-24T14:52:39.784Z,46.09
2019-03-24T14:55:12.218Z,46.10
2019-03-24T14:57:44.752Z,46.10
2019-03-24T15:00:24.121Z,46.10
2019-03-24T15:02:56.707Z,46.10
2019-03-24T15:05:29.504Z,46.10
2019-03-24T15:08:02.056Z,46.06
2019-03-24T15:10:35.573Z,46.02
2019-03-24T15:13:08.192Z,46.03
2019-03-24T15:15:40.637Z,46.12
2019-03-24T15:18:13.253Z,46.09
2019-03-24T15:20:46.078Z,46.07
2019-03-24T15:23:18.734Z,46.03
2019-03-24T15:25:51.260Z,45.96
2019-03-24T15:28:23.750Z,45.94
2019-03-24T15:30:56.363Z,45.91
2019-03-24T15:33:29.266Z,45.87
2019-03-24T15:36:01.814Z,45.88
2019-03-24T15:38:34.350Z,45.85
2019-03-24T15:41:06.833Z,45.67
2019-03-24T15:43:41.169Z,45.58
2019-03-24T15:46:13.903Z,45.52
2019-03-24T15:48:46.554Z,45.38
2019-03-24T15:51:19.098Z,45.39
2019-03-24T15:53:51.719Z,45.33
2019-03-24T15:56:24.309Z,45.14
2019-03-24T15:58:56.811Z,45.15
2019-03-24T16:01:29.355Z,44.99
2019-03-24T16:04:02.087Z,45.05
2019-03-24T16:06:34.628Z,44.94
2019-03-24T16:09:09.318Z,44.89
2019-03-24T16:11:41.864Z,44.79
2019-03-24T16:14:14.458Z,44.72
2019-03-24T16:16:47.061Z,44.70
2019-03-24T16:19:19.870Z,44.72
2019-03-24T16:21:52.404Z,44.74
2019-03-24T16:24:24.953Z,44.80
2019-03-24T16:26:57.811Z,44.84
2019-03-24T16:29:30.632Z,44.87
2019-03-24T16:32:03.066Z,44.92
2019-03-24T16:34:35.732Z,44.92
2019-03-24T16:37:08.289Z,44.96
2019-03-24T16:39:40.797Z,44.95
2019-03-24T16:42:13.558Z,44.98
2019-03-24T16:44:46.075Z,44.99
2019-03-24T16:47:18.973Z,44.99
2019-03-24T16:49:51.622Z,44.96
2019-03-24T16:52:24.420Z,44.94
2019-03-24T16:54:56.887Z,44.91
2019-03-24T16:57:29.466Z,44.89
2019-03-24T17:00:02.163Z,44.86
2019-03-24T17:02:34.936Z,44.73
2019-03-24T17:05:07.843Z,44.79
2019-03-24T17:07:40.437Z,44.79
2019-03-24T17:10:13.169Z,44.84
2019-03-24T17:12:45.695Z,44.83
2019-03-24T17:15:18.378Z,44.89
2019-03-24T17:17:51.025Z,44.93
2019-03-24T17:20:23.774Z,44.92
2019-03-24T17:22:56.506Z,44.93
2019-03-24T17:25:29.658Z,44.93
2019-03-24T17:28:02.177Z,44.94
2019-03-24T17:30:34.715Z,44.95
2019-03-24T17:33:07.313Z,44.96
2019-03-24T17:35:40.437Z,44.96
2019-03-24T17:38:13.080Z,44.94
2019-03-24T17:40:45.541Z,44.95
2019-03-24T17:43:18.098Z,44.92
2019-03-24T17:45:50.720Z,44.87
2019-03-24T17:48:23.777Z,44.77
2019-03-24T17:50:56.600Z,44.75
2019-03-24T17:53:29.477Z,44.80
2019-03-24T17:56:02.072Z,44.75
2019-03-24T17:58:34.760Z,44.75
2019-03-24T18:01:07.252Z,44.80
2019-03-24T18:03:39.824Z,44.66
2019-03-24T18:06:12.453Z,44.58
2019-03-24T18:08:45.151Z,44.57
2019-03-24T18:11:17.926Z,44.52
2019-03-24T18:13:50.554Z,44.53
2019-03-24T18:16:23.087Z,44.50
2019-03-24T18:18:55.707Z,44.51
2019-03-24T18:21:28.374Z,44.50
2019-03-24T18:24:01.101Z,44.51
2019-03-24T18:26:33.584Z,44.47
2019-03-24T18:29:10.223Z,44.41
2019-03-24T18:31:42.742Z,44.46
2019-03-24T18:34:15.350Z,44.48
2019-03-24T18:36:48.072Z,44.45
2019-03-24T18:39:21.259Z,44.42
2019-03-24T18:41:53.794Z,44.42
2019-03-24T18:44:26.654Z,44.48
2019-03-24T18:46:59.371Z,44.51
2019-03-24T18:49:31.938Z,44.56
2019-03-24T18:52:04.490Z,44.57
2019-03-24T18:54:37.229Z,44.64
2019-03-24T18:57:09.773Z,44.70
2019-03-24T18:59:42.374Z,44.75
2019-03-24T19:02:15.002Z,44.79
2019-03-24T19:04:47.922Z,44.82
2019-03-24T19:07:20.492Z,44.88
2019-03-24T19:09:53.236Z,44.90
2019-03-24T19:12:25.907Z,44.98
2019-03-24T19:14:58.529Z,45.07
2019-03-24T19:17:31.304Z,45.17
2019-03-24T19:20:03.932Z,45.25
2019-03-24T19:22:36.639Z,45.37
2019-03-24T19:25:10.630Z,45.43
2019-03-24T19:27:43.335Z,45.49
2019-03-24T19:30:17.022Z,45.58
2019-03-24T19:32:50.642Z,45.63
2019-03-24T19:35:23.523Z,45.68
2019-03-24T19:37:57.007Z,45.72
2019-03-24T19:40:31.281Z,45.74
2019-03-24T19:43:04.075Z,45.77
2019-03-24T19:45:37.022Z,45.79
2019-03-24T19:48:09.721Z,45.79
2019-03-24T19:50:42.417Z,45.81
2019-03-24T19:53:14.887Z,45.79
2019-03-24T19:55:47.686Z,45.76
2019-03-24T19:58:20.439Z,45.78
2019-03-24T20:00:52.989Z,45.80
2019-03-24T20:03:25.624Z,45.83
2019-03-24T20:05:58.123Z,45.83
2019-03-24T20:08:30.781Z,45.88
2019-03-24T20:11:03.461Z,45.96
2019-03-24T20:13:36.177Z,46.02
2019-03-24T20:16:08.864Z,46.10
2019-03-24T20:18:41.375Z,46.16
2019-03-24T20:21:13.938Z,46.21
2019-03-24T20:23:46.589Z,46.26
2019-03-24T20:26:19.160Z,46.26
2019-03-24T20:28:51.871Z,46.29
2019-03-24T20:31:24.371Z,46.33
2019-03-24T20:33:56.911Z,46.34
2019-03-24T20:36:29.508Z,46.29
2019-03-24T20:39:02.139Z,46.28
2019-03-24T20:41:34.622Z,46.28
2019-03-24T20:44:07.279Z,46.31
2019-03-24T20:46:39.950Z,46.34
2019-03-24T20:49:12.466Z,46.35
2019-03-24T20:51:44.933Z,46.38
2019-03-24T20:54:17.444Z,46.37
2019-03-24T20:56:50.010Z,46.38
2019-03-24T20:59:22.745Z,46.36
2019-03-24T21:01:55.298Z,46.43
2019-03-24T21:04:27.896Z,46.48
2019-03-24T21:07:00.471Z,46.53
2019-03-24T21:09:33.008Z,46.54
2019-03-24T21:12:05.520Z,46.57
2019-03-24T21:14:38.505Z,46.56
2019-03-24T21:17:10.997Z,46.59
2019-03-24T21:19:43.510Z,46.60
2019-03-24T21:22:16.015Z,46.63
2019-03-24T21:24:48.487Z,46.61
2019-03-24T21:27:21.020Z,46.59
2019-03-24T21:29:54.875Z,46.59
2019-03-24T21:32:27.347Z,46.58
2019-03-24T21:34:59.863Z,46.55
2019-03-24T21:37:33.609Z,46.53
2019-03-24T21:40:06.819Z,46.54
2019-03-24T21:42:39.674Z,46.52
2019-03-24T21:50:17.332Z,46.66
2019-03-24T21:52:49.787Z,46.67
2019-03-24T21:55:22.272Z,46.73
2019-03-24T21:57:57.804Z,46.77
2019-03-24T22:00:35.413Z,46.79
2019-03-24T22:03:09.060Z,46.81
2019-03-24T22:05:41.995Z,46.80
2019-03-24T22:08:14.526Z,46.78
2019-03-24T22:10:47.129Z,46.74
2019-03-24T22:13:19.637Z,46.69
2019-03-24T22:15:52.236Z,46.67
2019-03-24T22:18:24.671Z,46.69
2019-03-24T22:20:57.158Z,46.72
2019-03-24T22:23:29.701Z,46.77
2019-03-24T22:26:02.803Z,46.79
2019-03-24T22:28:34.294Z,46.78
2019-03-24T22:31:06.851Z,46.78
2019-03-24T22:33:39.560Z,46.72
2019-03-24T22:36:12.108Z,46.65
2019-03-24T22:38:44.995Z,46.65
2019-03-24T22:41:17.579Z,46.62
2019-03-24T22:43:50.160Z,46.64
2019-03-24T22:46:22.718Z,46.67
2019-03-24T22:48:55.251Z,46.68
2019-03-24T22:51:27.852Z,46.70
2019-03-24T22:54:03.552Z,46.72
2019-03-24T22:56:34.537Z,46.68
2019-03-24T22:59:07.276Z,46.56
2019-03-24T23:01:39.916Z,46.37
2019-03-24T23:04:13.923Z,46.26
2019-03-24T23:06:46.425Z,46.11
2019-03-24T23:09:19.158Z,45.99
2019-03-24T23:11:51.914Z,45.93
2019-03-24T23:14:24.608Z,45.85
2019-03-24T23:16:57.103Z,45.73
2019-03-24T23:19:29.579Z,45.66
2019-03-24T23:22:02.286Z,45.60
2019-03-24T23:24:34.721Z,45.33
2019-03-24T23:27:07.308Z,45.35
2019-03-24T23:29:40.793Z,45.35
2019-03-24T23:32:13.472Z,45.31
2019-03-24T23:34:46.366Z,45.20
2019-03-24T23:37:18.888Z,45.14
2019-03-24T23:39:51.821Z,45.08
2019-03-24T23:42:24.393Z,45.04
2019-03-24T23:44:57.141Z,44.95
2019-03-24T23:47:29.672Z,44.79
2019-03-24T23:50:02.130Z,44.69
2019-03-24T23:52:34.734Z,44.67
2019-03-24T23:55:07.663Z,44.58
2019-03-24T23:57:40.102Z,44.63
